createdAt,value
2022-12-23T00:03:05.046Z,46.50
2022-12-23T00:05:38.070Z,46.10
2022-12-23T00:08:06.095Z,48.20
2022-12-23T00:10:33.930Z,46.90
2022-12-23T00:13:19.485Z,44.90
2022-12-23T00:15:46.389Z,48.70
2022-12-23T00:18:13.071Z,46.70
2022-12-23T00:23:06.589Z,49.10
2022-12-23T00:25:43.958Z,50.50
2022-12-23T00:28:13.633Z,47.70
2022-12-23T00:30:58.994Z,48.30
2022-12-23T00:33:28.930Z,47.00
2022-12-23T00:35:55.971Z,50.00
2022-12-23T00:38:41.645Z,42.90
2022-12-23T00:41:35.584Z,51.60
2022-12-23T00:44:03.766Z,49.90
2022-12-23T00:46:30.777Z,54.60
2022-12-23T00:49:16.514Z,49.00
2022-12-23T00:51:43.174Z,48.50
2022-12-23T00:56:36.466Z,44.80
2022-12-23T00:59:03.184Z,47.30
2022-12-23T01:04:35.934Z,42.90
2022-12-23T01:07:03.515Z,48.20
2022-12-23T01:09:30.497Z,50.00
2022-12-23T01:11:57.261Z,46.70
2022-12-23T01:14:24.801Z,48.10
2022-12-23T01:16:51.738Z,48.80
2022-12-23T01:19:19.176Z,48.00
2022-12-23T01:21:45.926Z,50.50
2022-12-23T01:24:12.627Z,45.80
2022-12-23T01:29:05.985Z,43.80
2022-12-23T01:31:32.811Z,47.80
2022-12-23T01:33:59.564Z,48.50
2022-12-23T01:36:26.410Z,46.90
2022-12-23T01:38:53.216Z,49.10
2022-12-23T01:41:42.172Z,50.60
2022-12-23T01:45:07.714Z,42.20
2022-12-23T01:47:49.483Z,45.80
2022-12-23T01:50:54.832Z,48.80
2022-12-23T01:53:30.630Z,41.30
2022-12-23T01:56:02.944Z,46.90
2022-12-23T01:58:37.963Z,43.40
2022-12-23T02:01:24.556Z,44.90
2022-12-23T02:03:54.990Z,44.10
2022-12-23T02:06:43.409Z,42.30
2022-12-23T02:09:18.671Z,46.40
2022-12-23T02:12:31.790Z,41.90
2022-12-23T02:15:42.051Z,39.80
2022-12-23T02:18:21.259Z,39.60
2022-12-23T02:20:53.904Z,37.60
2022-12-23T02:23:48.546Z,40.00
2022-12-23T02:26:27.520Z,37.50
2022-12-23T02:29:00.230Z,40.50
2022-12-23T02:34:17.570Z,43.20
2022-12-23T02:37:09.407Z,38.80
2022-12-23T02:39:49.373Z,37.60
2022-12-23T02:42:25.976Z,43.00
2022-12-23T02:45:01.765Z,41.10
2022-12-23T02:47:52.687Z,35.20
2022-12-23T02:50:36.317Z,37.80
2022-12-23T02:53:27.273Z,39.10
2022-12-23T02:55:56.364Z,38.00
2022-12-23T02:58:29.276Z,38.10
2022-12-23T03:00:58.117Z,40.70
2022-12-23T03:03:26.271Z,41.50
2022-12-23T03:05:54.426Z,42.70
2022-12-23T03:08:30.343Z,41.30
2022-12-23T03:11:15.208Z,38.90
2022-12-23T03:14:11.007Z,37.60
2022-12-23T03:17:21.045Z,40.10
2022-12-23T03:19:57.187Z,42.10
2022-12-23T03:22:40.796Z,48.30
2022-12-23T03:25:37.944Z,39.10
2022-12-23T03:28:15.937Z,41.70
2022-12-23T03:30:46.564Z,39.00
2022-12-23T03:33:42.460Z,44.20
2022-12-23T03:36:18.277Z,41.40
2022-12-23T03:38:46.165Z,37.80
2022-12-23T03:41:18.415Z,43.80
2022-12-23T03:43:55.116Z,41.20
2022-12-23T03:46:38.037Z,39.20
2022-12-23T03:49:15.317Z,36.50
2022-12-23T03:51:55.471Z,39.00
2022-12-23T03:54:31.684Z,40.80
2022-12-23T03:57:03.582Z,39.60
2022-12-23T03:59:37.194Z,36.30
2022-12-23T04:02:09.899Z,41.50
2022-12-23T04:04:45.479Z,43.20
2022-12-23T04:07:30.576Z,40.90
2022-12-23T04:09:58.715Z,40.40
2022-12-23T04:12:30.132Z,42.50
2022-12-23T04:14:57.395Z,43.70
2022-12-23T04:17:24.189Z,38.80
2022-12-23T04:19:52.449Z,40.90
2022-12-23T04:22:19.233Z,46.40
2022-12-23T04:24:45.978Z,40.60
2022-12-23T04:27:14.731Z,40.60
2022-12-23T04:29:41.659Z,41.70
2022-12-23T04:32:09.513Z,44.40
2022-12-23T04:34:36.211Z,38.40
2022-12-23T04:39:29.553Z,39.10
2022-12-23T04:44:23.018Z,38.00
2022-12-23T04:46:49.757Z,36.20
2022-12-23T04:49:16.602Z,40.80
2022-12-23T04:51:43.272Z,37.70
2022-12-23T04:56:36.528Z,41.70
2022-12-23T05:01:31.129Z,42.60
2022-12-23T05:03:57.876Z,41.20
2022-12-23T05:08:51.238Z,38.30
2022-12-23T05:11:17.998Z,41.90
2022-12-23T05:13:44.906Z,39.20
2022-12-23T05:16:11.585Z,37.40
2022-12-23T05:21:05.340Z,39.00
2022-12-23T05:23:32.108Z,42.80
2022-12-23T05:25:59.053Z,43.30
2022-12-23T05:28:25.889Z,43.30
2022-12-23T05:31:03.871Z,42.40
2022-12-23T05:33:32.833Z,40.00
2022-12-23T05:35:59.729Z,39.80
2022-12-23T05:38:27.163Z,40.20
2022-12-23T05:40:54.121Z,39.60
2022-12-23T05:43:21.424Z,42.00
2022-12-23T05:45:49.564Z,38.90
2022-12-23T05:48:16.565Z,46.30
2022-12-23T05:50:43.329Z,42.80
2022-12-23T05:53:10.222Z,41.60
2022-12-23T05:55:37.062Z,40.50
2022-12-23T05:58:03.815Z,42.90
2022-12-23T06:00:30.721Z,43.40
2022-12-23T06:02:57.630Z,40.30
2022-12-23T06:05:24.617Z,42.40
2022-12-23T06:07:51.566Z,39.80
2022-12-23T06:10:18.823Z,43.40
2022-12-23T06:12:45.494Z,47.00
2022-12-23T06:17:39.554Z,42.20
2022-12-23T06:20:07.115Z,42.10
2022-12-23T06:22:33.947Z,41.40
2022-12-23T06:25:00.596Z,42.30
2022-12-23T06:29:53.980Z,40.10
2022-12-23T06:32:20.738Z,41.00
2022-12-23T06:34:49.109Z,44.80
2022-12-23T06:37:15.860Z,42.10
2022-12-23T06:39:42.546Z,39.80
2022-12-23T06:44:35.746Z,42.80
2022-12-23T06:49:29.226Z,39.00
2022-12-23T06:51:55.973Z,45.10
2022-12-23T06:54:22.907Z,41.00
2022-12-23T06:56:49.564Z,40.50
2022-12-23T07:01:42.990Z,46.30
2022-12-23T07:04:10.592Z,45.00
2022-12-23T07:06:37.811Z,43.60
2022-12-23T07:09:04.587Z,39.50
2022-12-23T07:11:31.543Z,44.90
2022-12-23T07:13:59.707Z,46.80
2022-12-23T07:16:26.948Z,41.50
2022-12-23T07:18:53.795Z,42.80
2022-12-23T07:21:28.601Z,42.70
2022-12-23T07:23:56.511Z,44.20
2022-12-23T07:26:23.186Z,40.80
2022-12-23T07:31:17.042Z,45.10
2022-12-23T07:33:44.076Z,46.00
2022-12-23T07:36:10.838Z,41.60
2022-12-23T07:38:37.659Z,43.70
2022-12-23T07:41:04.412Z,39.80
2022-12-23T07:43:31.094Z,37.80
2022-12-23T07:46:00.848Z,34.70
2022-12-23T07:48:28.313Z,36.80
2022-12-23T07:51:01.884Z,36.30
2022-12-23T07:53:28.827Z,38.60
2022-12-23T07:55:56.791Z,35.60
2022-12-23T07:58:24.393Z,36.20
2022-12-23T08:00:51.172Z,29.70
2022-12-23T08:03:18.108Z,31.70
2022-12-23T08:05:44.953Z,33.00
2022-12-23T08:10:44.446Z,27.70
2022-12-23T08:13:14.712Z,30.30
2022-12-23T08:18:08.163Z,31.40
2022-12-23T08:20:34.898Z,25.40
2022-12-23T08:23:01.700Z,27.50
2022-12-23T08:27:55.104Z,33.90
2022-12-23T08:30:21.862Z,34.30
2022-12-23T08:32:48.608Z,32.50
2022-12-23T08:35:15.426Z,30.20
2022-12-23T08:37:42.167Z,28.90
2022-12-23T08:40:09.950Z,30.90
2022-12-23T08:42:36.792Z,26.50
2022-12-23T08:45:03.867Z,33.30
2022-12-23T08:47:30.569Z,25.40
2022-12-23T08:52:23.829Z,28.70
2022-12-23T08:57:17.090Z,34.00
2022-12-23T08:59:43.781Z,32.40
2022-12-23T09:02:12.116Z,38.40
2022-12-23T09:04:39.240Z,32.90
2022-12-23T09:07:06.226Z,33.80
2022-12-23T09:09:32.983Z,31.80
2022-12-23T09:11:59.846Z,31.00
2022-12-23T09:14:26.661Z,33.00
2022-12-23T09:16:53.359Z,30.20
2022-12-23T09:19:20.649Z,34.10
2022-12-23T09:21:47.323Z,36.60
2022-12-23T09:24:14.115Z,33.90
2022-12-23T09:26:40.967Z,30.10
2022-12-23T09:29:07.722Z,29.40
2022-12-23T09:31:37.736Z,33.00
2022-12-23T09:34:06.065Z,31.40
2022-12-23T09:36:32.820Z,34.20
2022-12-23T09:38:59.628Z,35.50
2022-12-23T09:42:01.625Z,31.90
2022-12-23T09:45:05.962Z,30.20
2022-12-23T09:47:34.182Z,28.60
2022-12-23T09:50:10.306Z,32.60
2022-12-23T09:52:57.544Z,33.30
2022-12-23T09:55:29.244Z,33.90
2022-12-23T09:58:03.556Z,37.50
2022-12-23T10:00:39.713Z,37.90
2022-12-23T10:03:40.582Z,36.70
2022-12-23T10:06:19.358Z,38.30
2022-12-23T10:08:49.052Z,36.00
2022-12-23T10:11:30.032Z,37.00
2022-12-23T10:14:02.099Z,36.20
2022-12-23T10:16:55.053Z,37.70
2022-12-23T10:19:43.373Z,38.00
2022-12-23T10:22:33.357Z,46.90
2022-12-23T10:25:02.139Z,51.80
2022-12-23T10:27:39.238Z,49.40
2022-12-23T10:30:54.109Z,52.00
2022-12-23T10:33:18.057Z,46.30
2022-12-23T10:35:58.319Z,50.80
2022-12-23T10:38:30.206Z,50.80
2022-12-23T10:41:09.036Z,50.00
2022-12-23T10:43:45.150Z,51.10
2022-12-23T10:46:23.930Z,54.80
2022-12-23T10:49:12.276Z,46.90
2022-12-23T10:51:47.836Z,52.70
2022-12-23T10:54:28.439Z,56.90
2022-12-23T10:56:55.643Z,50.10
2022-12-23T10:59:27.095Z,49.80
2022-12-23T11:02:23.043Z,50.40
2022-12-23T11:04:50.391Z,46.00
2022-12-23T11:10:23.541Z,47.90
2022-12-23T11:12:53.217Z,45.50
2022-12-23T11:15:26.116Z,40.70
2022-12-23T11:18:12.775Z,43.80
2022-12-23T11:20:44.454Z,43.30
2022-12-23T11:23:33.210Z,44.90
2022-12-23T11:26:18.790Z,46.80
2022-12-23T11:28:53.131Z,41.00
2022-12-23T11:31:35.513Z,40.10
2022-12-23T11:34:14.397Z,43.30
2022-12-23T11:36:41.484Z,40.20
2022-12-23T11:39:14.205Z,42.70
2022-12-23T11:41:50.092Z,41.00
2022-12-23T11:44:22.700Z,43.70
2022-12-23T11:46:50.567Z,39.50
2022-12-23T11:49:28.035Z,39.00
2022-12-23T11:52:16.914Z,41.10
2022-12-23T11:54:54.453Z,35.00
2022-12-23T11:57:30.883Z,30.70
2022-12-23T12:00:02.540Z,37.50
2022-12-23T12:02:43.630Z,31.40
2022-12-23T12:05:16.592Z,38.90
2022-12-23T12:07:45.250Z,33.40
2022-12-23T12:10:33.522Z,35.60
2022-12-23T12:13:05.952Z,32.80
2022-12-23T12:15:53.201Z,32.60
2022-12-23T12:18:22.171Z,31.20
2022-12-23T12:20:53.984Z,33.70
2022-12-23T12:23:39.528Z,33.60
2022-12-23T12:26:12.555Z,33.10
2022-12-23T12:28:43.801Z,28.20
2022-12-23T12:31:26.868Z,33.00
2022-12-23T12:34:13.738Z,39.80
2022-12-23T12:36:59.832Z,34.30
2022-12-23T12:39:41.362Z,35.20
2022-12-23T12:42:21.886Z,34.30
2022-12-23T12:45:16.633Z,34.40
2022-12-23T12:48:13.079Z,31.30
2022-12-23T12:51:10.936Z,32.30
2022-12-23T12:53:46.950Z,31.10
2022-12-23T12:56:30.992Z,32.10
2022-12-23T12:58:58.588Z,32.00
2022-12-23T13:01:56.968Z,29.50
2022-12-23T13:04:59.496Z,27.80
2022-12-23T13:07:54.360Z,29.70
2022-12-23T13:10:53.211Z,32.00
2022-12-23T13:13:51.194Z,31.30
2022-12-23T13:16:36.319Z,32.80
2022-12-23T13:19:40.823Z,29.90
2022-12-23T13:22:16.484Z,31.00
2022-12-23T13:25:03.819Z,31.90
2022-12-23T13:27:41.239Z,32.60
2022-12-23T13:30:18.033Z,33.10
2022-12-23T13:33:09.144Z,32.60
2022-12-23T13:36:33.827Z,35.10
2022-12-23T13:39:25.312Z,29.70
2022-12-23T13:41:58.588Z,26.60
2022-12-23T13:44:31.170Z,27.70
2022-12-23T13:47:16.356Z,30.00
2022-12-23T13:49:53.067Z,29.80
2022-12-23T13:52:44.270Z,31.80
2022-12-23T13:55:16.830Z,31.30
2022-12-23T13:58:18.109Z,29.10
2022-12-23T14:00:45.467Z,28.80
2022-12-23T14:03:15.069Z,27.90
2022-12-23T14:05:45.314Z,28.80
2022-12-23T14:08:26.615Z,32.10
2022-12-23T14:11:27.405Z,30.80
2022-12-23T14:14:06.109Z,26.20
2022-12-23T14:16:45.184Z,27.00
2022-12-23T14:19:11.910Z,33.90
2022-12-23T14:21:46.738Z,31.10
2022-12-23T14:24:54.908Z,37.20
2022-12-23T14:27:33.828Z,43.70
2022-12-23T14:30:15.686Z,45.50
2022-12-23T14:32:49.392Z,39.80
2022-12-23T14:35:25.188Z,39.80
2022-12-23T14:38:08.606Z,43.60
2022-12-23T14:40:38.263Z,38.00
2022-12-23T14:43:26.808Z,42.80
2022-12-23T14:45:54.600Z,43.00
2022-12-23T14:48:33.369Z,39.60
2022-12-23T14:51:23.610Z,45.50
2022-12-23T14:53:54.132Z,42.10
2022-12-23T14:56:39.101Z,42.70
2022-12-23T14:59:05.749Z,49.60
2022-12-23T15:04:05.459Z,48.80
2022-12-23T15:06:45.364Z,49.10
2022-12-23T15:09:31.633Z,46.40
2022-12-23T15:12:01.941Z,41.80
2022-12-23T15:14:34.517Z,44.50
2022-12-23T15:17:18.786Z,41.40
2022-12-23T15:19:47.733Z,44.20
2022-12-23T15:22:23.650Z,49.50
2022-12-23T15:24:55.276Z,42.60
2022-12-23T15:27:30.213Z,47.20
2022-12-23T15:29:58.241Z,46.40
2022-12-23T15:32:26.799Z,46.20
2022-12-23T15:35:05.674Z,49.10
2022-12-23T15:37:33.052Z,46.00
2022-12-23T15:40:09.513Z,47.20
2022-12-23T15:42:39.328Z,47.60
2022-12-23T15:45:36.993Z,48.50
2022-12-23T15:48:06.677Z,43.20
2022-12-23T15:50:40.607Z,45.60
2022-12-23T15:53:10.801Z,40.50
2022-12-23T15:55:40.715Z,44.30
2022-12-23T15:58:07.998Z,45.60
2022-12-23T16:00:51.643Z,42.90
2022-12-23T16:03:34.564Z,44.10
2022-12-23T16:06:10.628Z,51.00
2022-12-23T16:08:38.792Z,44.30
2022-12-23T16:11:22.983Z,44.30
2022-12-23T16:14:02.371Z,44.10
2022-12-23T16:16:42.859Z,45.20
2022-12-23T16:19:51.730Z,41.90
2022-12-23T16:22:31.001Z,44.30
2022-12-23T16:25:19.917Z,42.40
2022-12-23T16:27:54.816Z,37.90
2022-12-23T16:30:25.906Z,40.50
2022-12-23T16:32:56.244Z,42.80
2022-12-23T16:35:28.455Z,43.40
2022-12-23T16:38:16.866Z,38.00
2022-12-23T16:40:46.485Z,37.10
2022-12-23T16:43:13.972Z,39.30
2022-12-23T16:45:41.321Z,39.00
2022-12-23T16:48:23.915Z,38.00
2022-12-23T16:50:53.528Z,37.60
2022-12-23T16:53:20.476Z,37.20
2022-12-23T16:55:55.061Z,37.80
2022-12-23T16:58:25.629Z,39.50
2022-12-23T17:00:53.375Z,52.20
2022-12-23T17:03:21.162Z,42.50
2022-12-23T17:05:48.560Z,44.10
2022-12-23T17:08:15.503Z,40.40
2022-12-23T17:10:44.785Z,37.80
2022-12-23T17:13:14.113Z,34.50
2022-12-23T17:15:40.936Z,37.40
2022-12-23T17:18:16.744Z,38.10
2022-12-23T17:20:46.256Z,38.50
2022-12-23T17:23:29.665Z,37.10
2022-12-23T17:25:57.177Z,36.30
2022-12-23T17:28:28.967Z,35.00
2022-12-23T17:30:56.371Z,42.70
2022-12-23T17:33:26.892Z,35.50
2022-12-23T17:35:53.596Z,36.20
2022-12-23T17:40:48.221Z,47.00
2022-12-23T17:43:16.586Z,37.70
2022-12-23T17:45:44.480Z,37.90
2022-12-23T17:48:17.933Z,40.40
2022-12-23T17:50:47.884Z,35.30
2022-12-23T17:53:19.662Z,37.10
2022-12-23T17:55:46.636Z,39.50
2022-12-23T17:58:14.688Z,40.20
2022-12-23T18:00:41.829Z,34.10
2022-12-23T18:03:23.398Z,37.70
2022-12-23T18:05:54.307Z,42.10
2022-12-23T18:08:26.007Z,39.40
2022-12-23T18:13:20.014Z,35.00
2022-12-23T18:15:47.802Z,38.40
2022-12-23T18:18:27.249Z,41.90
2022-12-23T18:20:58.463Z,37.40
2022-12-23T18:23:28.215Z,41.60
2022-12-23T18:25:56.043Z,41.80
2022-12-23T18:28:23.463Z,43.00
2022-12-23T18:30:52.324Z,43.40
2022-12-23T18:33:19.740Z,40.60
2022-12-23T18:35:49.354Z,40.70
2022-12-23T18:38:17.861Z,41.60
2022-12-23T18:40:45.537Z,43.50
2022-12-23T18:43:22.020Z,40.40
2022-12-23T18:45:53.286Z,35.70
2022-12-23T18:48:21.584Z,37.30
2022-12-23T18:50:49.021Z,41.30
2022-12-23T18:53:25.392Z,40.90
2022-12-23T18:55:53.790Z,32.00
2022-12-23T18:58:21.479Z,37.10
2022-12-23T19:00:49.595Z,34.50
2022-12-23T19:03:21.087Z,39.40
2022-12-23T19:05:49.048Z,33.60
2022-12-23T19:08:20.284Z,37.60
2022-12-23T19:10:51.542Z,38.50
2022-12-23T19:13:19.194Z,42.20
2022-12-23T19:15:46.324Z,36.30
2022-12-23T19:18:15.120Z,34.20
2022-12-23T19:20:46.057Z,34.50
2022-12-23T19:23:13.440Z,36.70
2022-12-23T19:25:42.134Z,39.70
2022-12-23T19:28:09.911Z,37.90
2022-12-23T19:30:36.921Z,40.00
2022-12-23T19:33:03.794Z,39.10
2022-12-23T19:35:30.523Z,40.50
2022-12-23T19:37:57.364Z,38.90
2022-12-23T19:40:24.114Z,43.50
2022-12-23T19:42:50.794Z,38.80
2022-12-23T19:47:44.332Z,39.50
2022-12-23T19:50:11.665Z,33.10
2022-12-23T19:52:38.423Z,38.20
2022-12-23T19:55:05.775Z,36.60
2022-12-23T19:57:33.648Z,38.00
2022-12-23T20:00:01.941Z,37.00
2022-12-23T20:02:38.803Z,36.80
2022-12-23T20:05:06.285Z,37.50
2022-12-23T20:07:35.310Z,39.20
2022-12-23T20:10:02.645Z,40.00
2022-12-23T20:12:29.330Z,42.00
2022-12-23T20:17:22.824Z,33.00
2022-12-23T20:19:49.492Z,29.10
2022-12-23T20:24:43.613Z,34.60
2022-12-23T20:27:12.130Z,38.10
2022-12-23T20:29:40.711Z,33.30
2022-12-23T20:32:07.572Z,35.10
2022-12-23T20:34:39.084Z,37.00
2022-12-23T20:37:07.007Z,39.80
2022-12-23T20:39:33.843Z,37.70
2022-12-23T20:42:00.683Z,38.60
2022-12-23T20:44:36.558Z,39.40
2022-12-23T20:47:07.423Z,37.40
2022-12-23T20:49:34.294Z,30.20
2022-12-23T20:52:01.759Z,28.80
2022-12-23T20:54:33.311Z,33.90
2022-12-23T20:57:02.524Z,35.20
2022-12-23T20:59:29.473Z,41.30
2022-12-23T21:01:59.099Z,38.20
2022-12-23T21:04:26.341Z,37.10
2022-12-23T21:06:53.016Z,35.00
2022-12-23T21:09:20.170Z,34.50
2022-12-23T21:11:48.048Z,31.50
2022-12-23T21:14:16.094Z,32.20
2022-12-23T21:16:43.029Z,38.00
2022-12-23T21:19:24.453Z,38.00
2022-12-23T21:21:52.375Z,37.80
2022-12-23T21:24:19.792Z,32.80
2022-12-23T21:26:55.738Z,34.10
2022-12-23T21:29:23.797Z,33.80
2022-12-23T21:31:50.568Z,35.50
2022-12-23T21:34:18.165Z,39.20
2022-12-23T21:36:45.032Z,39.10
2022-12-23T21:39:15.796Z,43.50
2022-12-23T21:41:42.615Z,42.90
2022-12-23T21:44:11.711Z,40.90
2022-12-23T21:46:38.442Z,42.00
2022-12-23T21:49:05.329Z,42.20
2022-12-23T21:51:41.794Z,40.20
2022-12-23T21:54:10.995Z,43.80
2022-12-23T21:56:39.195Z,41.50
2022-12-23T21:59:08.702Z,39.90
2022-12-23T22:01:35.655Z,43.50
2022-12-23T22:04:02.718Z,40.90
2022-12-23T22:06:32.817Z,42.20
2022-12-23T22:08:59.905Z,42.80
2022-12-23T22:11:30.175Z,41.40
2022-12-23T22:13:58.818Z,39.20
2022-12-23T22:16:28.109Z,37.10
2022-12-23T22:18:57.000Z,38.40
2022-12-23T22:21:25.489Z,41.30
2022-12-23T22:23:54.001Z,37.80
2022-12-23T22:26:25.605Z,42.30
2022-12-23T22:28:55.081Z,43.50
2022-12-23T22:31:31.738Z,42.00
2022-12-23T22:33:59.419Z,40.90
2022-12-23T22:36:26.868Z,37.00
2022-12-23T22:38:56.172Z,37.30
2022-12-23T22:41:24.313Z,42.90
2022-12-23T22:43:51.137Z,39.00
2022-12-23T22:46:18.552Z,38.70
2022-12-23T22:48:46.622Z,39.10
2022-12-23T22:51:16.668Z,42.00
2022-12-23T22:53:43.399Z,39.50
2022-12-23T22:56:12.729Z,42.60
2022-12-23T22:58:40.128Z,38.50
2022-12-23T23:01:16.815Z,38.10
2022-12-23T23:03:43.535Z,41.30
2022-12-23T23:06:11.631Z,35.50
2022-12-23T23:08:38.475Z,40.30
2022-12-23T23:11:05.789Z,40.10
2022-12-23T23:13:35.143Z,42.60
2022-12-23T23:16:02.713Z,44.20
2022-12-23T23:18:30.237Z,40.80
2022-12-23T23:20:57.134Z,37.80
2022-12-23T23:23:23.875Z,41.40
2022-12-23T23:25:50.679Z,41.70
2022-12-23T23:28:17.949Z,42.50
2022-12-23T23:30:45.185Z,53.80
2022-12-23T23:33:12.040Z,47.20
2022-12-23T23:35:38.661Z,43.30
2022-12-23T23:40:32.376Z,40.90
2022-12-23T23:42:59.199Z,39.80
2022-12-23T23:45:27.489Z,41.30
2022-12-23T23:47:55.062Z,39.10
2022-12-23T23:50:22.489Z,42.70
2022-12-23T23:52:49.179Z,42.40
2022-12-23T23:55:16.264Z,40.40
2022-12-23T23:57:42.912Z,47.50
